Terminal Aerodrome Forecast
Issued by NWS

Home | Current Version | Previous Version | Text Only | Print | Product List | Glossary On
Versions: 1 2 3 4 5 6 7 8 9 10 11 12 13 14 15 16 17 18 19 20 21 22 23 24 25 26 27 28 29 30 31 32 33 34 35 36 37 38 39 40 41 42 43 44 45 46 47 48 49 50
000
FTUS45 KPSR 301910 AAA
TAFIWA
TAF AMD
KIWA 301910Z 3019/0118 29012KT P6SM FEW120 SCT250
      TEMPO 3019/3022 29015G21KT
     FM302200 29010KT P6SM SCT080 SCT120 BKN200
     FM010300 09012KT P6SM VCTS BKN090CB OVC140
     FM010800 12006KT P6SM FEW090 BKN120 BKN200=

USA.gov is the U.S. government's official web portal to all federal, state and local government web resources and services.